Wilmington, NC

3:25 PM EDT on September 01, 2014 (GMT -0400)
NC STATE PORTS | Change Station
CLOSE
Current Station
Personal Weather Station
Location: WILMINGTON, NC
Elevation: 12 ft
Nearby Weather Stations

Elev 12 ft 34.20 °N, 77.95 °W | Updated 43 seconds ago

Mostly Cloudy
Mostly Cloudy
86.5 °F
Feels Like 96 °F
N
8.7
Wind Variable Wind from SE
Gusts 18.2 mph

Today
High -- | Low -- °F
--% Chance of Precip.
Yesterday
High -- | Low -- °F
Precip. -- in
6:45 AM 7:37 PM
Waxing Crescent, 43% visible
Pressure 30.06 in
Visibility 10.0 miles
Clouds Scattered Clouds 4000 ft
Scattered Clouds 4900 ft
Mostly Cloudy 5500 ft
Heat Index 96 °F
Dew Point 75 °F
Humidity 70%
Rainfall -999.00 in
Snow Depth Not available.
UV 4 out of 12
Pollen 8.70 out of 12
Air Quality Not available.
Flu Activity Not available.
SPECI KILM 011909Z AUTO 16009KT 10SM VCTS SCT040 SCT049 BKN055 31/25 A3006 RMK AO2 T03060250

More Conditions Fewer Conditions

Pressure 30.06 in
Visibility 10.0 miles
Clouds Scattered Clouds 4000 ft
Scattered Clouds 4900 ft
Mostly Cloudy 5500 ft
Heat Index 96 °F
Dew Point 75 °F
Humidity 70%
Rainfall -999.00 in
Snow Depth Not available.
UV 4 out of 12
Pollen 8.70 out of 12
Air Quality Not available.
Flu Activity Not available.
SPECI KILM 011909Z AUTO 16009KT 10SM VCTS SCT040 SCT049 BKN055 31/25 A3006 RMK AO2 T03060250

More Conditions Fewer Conditions

10-Day Weather Forecast

Almanac

Astronomy

Sep. 01, 2014 Rise Set
Actual Time 6:45 AM EDT 7:37 PM EDT
Civil Twilight 6:19 AM EDT 8:03 PM EDT
Nautical Twilight 5:49 AM EDT 8:33 PM EDT
Astronomical Twilight 5:18 AM EDT 9:04 PM EDT
Moon 1:11 PM EDT 11:55 PM EDT
Length of Visible Light 13h 43m
Length of Day
12h 52m
Tomorrow will be 2m 3s shorter.
Waxing Crescent, 43% of the Moon is Illuminated
Today
Waxing Crescent
Sep 2
First Quarter
Sep 8
Full
Sep 15
Last Quarter
Sep 24
New

Today's Extremes

State Highs State Lows

Community

WunderPhotos

Upload Photos

1,749,378 photos uploaded!

WunderBlogs® & News

Nearby

Snow Depth

Station Depth Elevation
No new snow has been reported.

Earthquake Activity

City Distance Mag. Time & Date
No recent earthquake activity has been reported nearby.
Minimum magnitude displayed is 2.5.

Coastal Water Temperatures

Place Temperature
Johnny Mercer Pier, Wrightsville Beach, NC 84.0 °F
Beaufort, NC 82.9 °F
Springmaid Pier, SC 82.9 °F

Nearby Weather Stations